Time,TemperatureF,DewpointF,PressureIn,WindDirection,WindDirectionDegrees,WindSpeedMPH,WindSpeedGustMPH,Humidity,HourlyPrecipIn,Conditions,Clouds,dailyrainin,SolarRadiationWatts/m^2,SoftwareType,DateUTC
2013-07-25 00:01:00,55.0,53.4,30.00,WSW,240,0.0,1.0,94,0.00,,,0.00,0.0,meteohub,2013-07-25 04:01:00,
2013-07-25 00:02:00,55.0,53.4,30.00,WSW,240,0.0,1.0,94,0.00,,,0.00,0.0,meteohub,2013-07-25 04:02:00,
2013-07-25 00:07:00,55.0,53.6,30.00,WSW,240,0.0,1.0,95,0.00,,,0.00,0.0,meteohub,2013-07-25 04:07:00,
2013-07-25 00:12:00,55.2,53.8,30.00,WSW,240,0.0,1.0,95,0.00,,,0.00,0.0,meteohub,2013-07-25 04:12:00,
2013-07-25 00:17:00,55.6,54.1,30.00,WSW,240,1.0,1.0,95,0.00,,,0.00,0.0,meteohub,2013-07-25 04:17:00,
2013-07-25 00:22:00,55.9,54.9,30.00,WSW,240,0.0,1.0,96,0.00,,,0.00,0.0,meteohub,2013-07-25 04:22:00,
2013-07-25 00:27:00,55.9,54.3,30.00,WSW,240,1.0,1.0,94,0.00,,,0.00,0.0,meteohub,2013-07-25 04:27:00,
2013-07-25 00:32:00,55.9,54.3,30.00,WSW,240,0.0,2.0,94,0.00,,,0.00,0.0,meteohub,2013-07-25 04:32:00,
2013-07-25 00:38:00,56.1,54.5,30.00,WSW,240,1.0,2.0,94,0.00,,,0.00,0.0,meteohub,2013-07-25 04:38:00,
2013-07-25 00:43:00,56.1,54.5,30.00,WSW,240,0.0,2.0,94,0.00,,,0.00,0.0,meteohub,2013-07-25 04:43:00,
2013-07-25 00:48:00,56.3,54.7,30.00,WSW,240,0.0,2.0,94,0.00,,,0.00,0.0,meteohub,2013-07-25 04:48:00,
2013-07-25 00:53:00,56.5,54.9,30.00,WSW,240,0.0,2.0,94,0.00,,,0.00,0.0,meteohub,2013-07-25 04:53:00,
2013-07-25 00:58:00,56.3,54.3,30.00,WSW,240,0.0,2.0,93,0.00,,,0.00,0.0,meteohub,2013-07-25 04:58:00,
2013-07-25 01:03:00,56.1,54.1,30.00,WSW,240,0.0,2.0,93,0.00,,,0.00,0.0,meteohub,2013-07-25 05:03:00,
2013-07-25 01:08:00,56.1,54.1,30.00,WSW,240,0.0,0.0,93,0.00,,,0.00,0.0,meteohub,2013-07-25 05:08:00,
2013-07-25 01:13:00,55.9,54.0,30.00,WSW,240,0.0,1.0,93,0.00,,,0.00,0.0,meteohub,2013-07-25 05:13:00,
2013-07-25 01:18:00,55.8,53.8,30.00,WSW,240,0.0,1.0,93,0.00,,,0.00,0.0,meteohub,2013-07-25 05:18:00,
2013-07-25 01:23:00,55.8,53.8,30.00,WSW,240,0.0,1.0,93,0.00,,,0.00,0.0,meteohub,2013-07-25 05:23:00,
2013-07-25 01:28:00,55.6,53.6,30.00,WSW,240,0.0,1.0,93,0.00,,,0.00,0.0,meteohub,2013-07-25 05:28:00,
2013-07-25 01:33:00,55.4,53.4,30.00,WSW,240,0.0,1.0,93,0.00,,,0.00,0.0,meteohub,2013-07-25 05:33:00,
2013-07-25 01:38:00,55.2,53.2,30.00,WSW,240,0.0,1.0,93,0.00,,,0.00,0.0,meteohub,2013-07-25 05:38:00,
2013-07-25 01:43:00,55.2,53.2,30.00,WSW,240,0.0,1.0,93,0.00,,,0.00,0.0,meteohub,2013-07-25 05:43:00,
2013-07-25 01:48:00,55.2,53.2,30.00,WSW,240,0.0,1.0,93,0.00,,,0.00,0.0,meteohub,2013-07-25 05:48:00,
2013-07-25 01:53:00,55.2,53.2,30.00,WSW,240,0.0,1.0,93,0.00,,,0.00,0.0,meteohub,2013-07-25 05:53:00,
2013-07-25 01:58:00,55.0,52.7,30.00,WSW,240,0.0,1.0,92,0.00,,,0.00,0.0,meteohub,2013-07-25 05:58:00,
2013-07-25 02:03:00,54.7,52.3,30.00,WSW,240,1.0,1.0,92,0.00,,,0.00,0.0,meteohub,2013-07-25 06:03:00,
2013-07-25 02:08:00,54.5,52.5,30.00,WSW,240,1.0,2.0,93,0.00,,,0.00,0.0,meteohub,2013-07-25 06:08:00,
2013-07-25 02:13:00,54.3,52.3,30.00,WSW,240,0.0,2.0,93,0.00,,,0.00,0.0,meteohub,2013-07-25 06:13:00,
2013-07-25 02:18:00,54.5,52.5,30.00,WSW,240,1.0,2.0,93,0.00,,,0.00,0.0,meteohub,2013-07-25 06:18:00,
2013-07-25 02:23:00,54.5,52.5,30.00,WSW,240,1.0,2.0,93,0.00,,,0.00,0.0,meteohub,2013-07-25 06:23:00,
2013-07-25 02:28:00,54.5,52.5,29.99,WSW,240,0.0,2.0,93,0.00,,,0.00,0.0,meteohub,2013-07-25 06:28:00,
2013-07-25 02:33:00,54.3,52.3,30.00,WSW,240,1.0,1.0,93,0.00,,,0.00,0.0,meteohub,2013-07-25 06:33:00,
2013-07-25 02:38:00,54.3,52.0,30.00,WSW,240,2.0,2.0,92,0.00,,,0.00,0.0,meteohub,2013-07-25 06:38:00,
2013-07-25 02:43:00,54.1,52.2,30.00,WSW,240,0.0,2.0,93,0.00,,,0.00,0.0,meteohub,2013-07-25 06:43:00,
2013-07-25 02:48:00,54.0,52.0,30.00,WSW,240,1.0,2.0,93,0.00,,,0.00,0.0,meteohub,2013-07-25 06:48:00,
2013-07-25 02:53:00,54.0,52.3,30.00,WSW,240,1.0,2.0,94,0.00,,,0.00,0.0,meteohub,2013-07-25 06:53:00,
2013-07-25 02:58:00,54.1,52.7,30.00,SW,236,1.0,2.0,95,0.00,,,0.00,0.0,meteohub,2013-07-25 06:58:00,
2013-07-25 03:03:00,54.3,52.7,30.00,WSW,252,0.0,2.0,94,0.00,,,0.00,0.0,meteohub,2013-07-25 07:03:00,
2013-07-25 03:08:00,54.1,52.5,30.00,WSW,252,0.0,2.0,94,0.00,,,0.00,0.0,meteohub,2013-07-25 07:08:00,
2013-07-25 03:13:00,54.1,52.5,30.00,WSW,252,0.0,2.0,94,0.00,,,0.00,0.0,meteohub,2013-07-25 07:13:00,
2013-07-25 03:18:00,54.1,52.7,30.00,WSW,252,0.0,1.0,95,0.00,,,0.00,0.0,meteohub,2013-07-25 07:18:00,
2013-07-25 03:23:00,54.1,52.7,29.99,WSW,252,0.0,1.0,95,0.00,,,0.00,0.0,meteohub,2013-07-25 07:23:00,
2013-07-25 03:28:00,54.1,52.7,29.99,WSW,252,0.0,1.0,95,0.00,,,0.00,0.0,meteohub,2013-07-25 07:28:00,
2013-07-25 03:33:00,54.1,53.1,29.99,WSW,252,0.0,1.0,96,0.00,,,0.00,0.0,meteohub,2013-07-25 07:33:00,
2013-07-25 03:38:00,54.1,53.1,29.99,WSW,252,0.0,1.0,96,0.00,,,0.00,0.0,meteohub,2013-07-25 07:38:00,
2013-07-25 03:43:00,53.6,52.0,29.99,WSW,252,1.0,1.0,94,0.00,,,0.00,0.0,meteohub,2013-07-25 07:43:00,
2013-07-25 03:48:00,53.4,52.0,29.99,WSW,252,1.0,1.0,95,0.00,,,0.00,0.0,meteohub,2013-07-25 07:48:00,
2013-07-25 03:53:00,53.2,51.8,29.99,WSW,252,0.0,1.0,95,0.00,,,0.00,0.0,meteohub,2013-07-25 07:53:00,
2013-07-25 03:59:00,53.1,51.6,29.99,WSW,252,1.0,2.0,95,0.00,,,0.00,0.0,meteohub,2013-07-25 07:59:00,
2013-07-25 04:04:00,53.1,52.0,29.99,WSW,252,1.0,2.0,96,0.00,,,0.00,0.0,meteohub,2013-07-25 08:04:00,
2013-07-25 04:09:00,53.2,52.2,29.99,WSW,252,1.0,2.0,96,0.00,,,0.00,0.0,meteohub,2013-07-25 08:09:00,
2013-07-25 04:14:00,53.1,51.6,29.99,WSW,252,1.0,2.0,95,0.00,,,0.00,0.0,meteohub,2013-07-25 08:14:00,
2013-07-25 04:19:00,53.1,51.6,29.99,WSW,252,1.0,2.0,95,0.00,,,0.00,0.0,meteohub,2013-07-25 08:19:00,
2013-07-25 04:24:00,53.1,51.6,29.99,South,187,2.0,2.0,95,0.00,,,0.00,0.0,meteohub,2013-07-25 08:24:00,
2013-07-25 04:29:00,52.9,51.4,29.99,South,177,1.0,2.0,95,0.00,,,0.00,0.0,meteohub,2013-07-25 08:29:00,
2013-07-25 04:34:00,53.1,51.6,29.99,SSW,196,2.0,4.0,95,0.00,,,0.00,0.0,meteohub,2013-07-25 08:34:00,
2013-07-25 04:39:00,53.2,51.8,29.99,SSW,202,1.0,4.0,95,0.00,,,0.00,0.0,meteohub,2013-07-25 08:39:00,
2013-07-25 04:44:00,53.1,51.4,29.99,South,171,1.0,4.0,94,0.00,,,0.00,0.0,meteohub,2013-07-25 08:44:00,
2013-07-25 04:49:00,52.9,51.3,29.99,South,175,1.0,4.0,94,0.00,,,0.00,0.0,meteohub,2013-07-25 08:49:00,
2013-07-25 04:54:00,52.5,50.5,29.99,South,175,1.0,3.0,93,0.00,,,0.00,0.0,meteohub,2013-07-25 08:54:00,
2013-07-25 04:59:00,52.3,50.7,29.99,South,186,1.0,3.0,94,0.00,,,0.00,0.0,meteohub,2013-07-25 08:59:00,
2013-07-25 05:04:00,52.3,50.9,30.00,South,186,1.0,2.0,95,0.00,,,0.00,0.0,meteohub,2013-07-25 09:04:00,
2013-07-25 05:09:00,52.3,50.9,30.00,South,186,0.0,2.0,95,0.00,,,0.00,0.0,meteohub,2013-07-25 09:09:00,
2013-07-25 05:14:00,52.3,50.7,30.00,South,186,1.0,2.0,94,0.00,,,0.00,0.0,meteohub,2013-07-25 09:14:00,
2013-07-25 05:19:00,52.2,50.5,30.00,South,186,0.0,2.0,94,0.00,,,0.00,0.0,meteohub,2013-07-25 09:19:00,
2013-07-25 05:24:00,51.8,50.2,29.99,South,186,1.0,2.0,94,0.00,,,0.00,0.0,meteohub,2013-07-25 09:24:00,
2013-07-25 05:29:00,51.4,49.8,30.00,South,185,1.0,2.0,94,0.00,,,0.00,0.0,meteohub,2013-07-25 09:29:00,
2013-07-25 05:34:00,51.4,50.0,30.00,South,185,1.0,2.0,95,0.00,,,0.00,0.0,meteohub,2013-07-25 09:34:00,
2013-07-25 05:39:00,51.4,50.0,30.00,South,185,1.0,2.0,95,0.00,,,0.00,0.0,meteohub,2013-07-25 09:39:00,
2013-07-25 05:44:00,51.3,49.8,30.00,South,185,0.0,2.0,95,0.00,,,0.00,0.0,meteohub,2013-07-25 09:44:00,
2013-07-25 05:49:00,51.3,50.2,30.00,South,185,1.0,2.0,96,0.00,,,0.00,0.0,meteohub,2013-07-25 09:49:00,
2013-07-25 05:54:00,51.3,50.2,30.00,South,185,1.0,2.0,96,0.00,,,0.00,0.0,meteohub,2013-07-25 09:54:00,
2013-07-25 05:59:00,51.1,50.0,30.01,South,185,1.0,2.0,96,0.00,,,0.00,0.0,meteohub,2013-07-25 09:59:00,
2013-07-25 06:04:00,51.1,50.0,30.01,South,185,0.0,1.0,96,0.00,,,0.00,0.0,meteohub,2013-07-25 10:04:00,
2013-07-25 06:09:00,50.7,49.6,30.00,South,185,2.0,2.0,96,0.00,,,0.00,0.0,meteohub,2013-07-25 10:09:00,
2013-07-25 06:14:00,50.5,49.1,30.01,South,185,0.0,2.0,95,0.00,,,0.00,0.0,meteohub,2013-07-25 10:14:00,
2013-07-25 06:19:00,50.4,49.3,30.01,South,185,1.0,2.0,96,0.00,,,0.00,5.0,meteohub,2013-07-25 10:19:00,
2013-07-25 06:24:00,50.4,49.3,30.01,South,185,0.0,2.0,96,0.00,,,0.00,7.0,meteohub,2013-07-25 10:24:00,
2013-07-25 06:29:00,50.2,49.1,30.01,South,185,0.0,2.0,96,0.00,,,0.00,14.0,meteohub,2013-07-25 10:29:00,
2013-07-25 06:34:00,50.4,49.3,30.01,South,185,1.0,2.0,96,0.00,,,0.00,19.0,meteohub,2013-07-25 10:34:00,
2013-07-25 06:39:00,50.2,49.1,30.01,South,185,1.0,1.0,96,0.00,,,0.00,23.0,meteohub,2013-07-25 10:39:00,
2013-07-25 06:44:00,50.4,49.3,30.01,South,185,0.0,2.0,96,0.00,,,0.00,35.0,meteohub,2013-07-25 10:44:00,
2013-07-25 06:49:00,50.5,49.6,30.01,South,185,0.0,2.0,97,0.00,,,0.00,51.0,meteohub,2013-07-25 10:49:00,
2013-07-25 06:54:00,51.1,50.2,30.01,South,185,0.0,2.0,97,0.00,,,0.00,63.0,meteohub,2013-07-25 10:54:00,
2013-07-25 06:59:00,51.6,50.7,30.01,South,185,0.0,1.0,97,0.00,,,0.00,72.0,meteohub,2013-07-25 10:59:00,
2013-07-25 07:04:00,52.2,51.3,30.01,South,185,0.0,1.0,97,0.00,,,0.00,74.0,meteohub,2013-07-25 11:04:00,
2013-07-25 07:09:00,52.9,51.8,30.01,South,185,0.0,1.0,96,0.00,,,0.00,93.0,meteohub,2013-07-25 11:09:00,
2013-07-25 07:14:00,53.2,51.6,30.01,South,185,1.0,1.0,94,0.00,,,0.00,113.0,meteohub,2013-07-25 11:14:00,
2013-07-25 07:19:00,53.6,52.0,30.01,South,185,0.0,1.0,94,0.00,,,0.00,132.0,meteohub,2013-07-25 11:19:00,
2013-07-25 07:24:00,54.7,52.7,30.01,South,185,1.0,1.0,93,0.00,,,0.00,144.0,meteohub,2013-07-25 11:24:00,
2013-07-25 07:29:00,55.8,53.2,30.01,South,185,0.0,1.0,91,0.00,,,0.00,162.0,meteohub,2013-07-25 11:29:00,
2013-07-25 07:34:00,56.5,53.2,30.01,South,185,0.0,1.0,89,0.00,,,0.00,176.0,meteohub,2013-07-25 11:34:00,
2013-07-25 07:39:00,57.2,53.6,30.01,South,185,0.0,1.0,88,0.00,,,0.00,190.0,meteohub,2013-07-25 11:39:00,
2013-07-25 07:45:00,58.1,54.3,30.02,South,185,0.0,1.0,87,0.00,,,0.00,202.0,meteohub,2013-07-25 11:45:00,
2013-07-25 07:50:00,59.0,54.9,30.02,North,355,1.0,1.0,86,0.00,,,0.00,214.0,meteohub,2013-07-25 11:50:00,
2013-07-25 07:55:00,59.5,55.0,30.02,South,189,2.0,2.0,85,0.00,,,0.00,227.0,meteohub,2013-07-25 11:55:00,
2013-07-25 08:00:00,59.4,54.9,30.01,SSE,149,1.0,3.0,85,0.00,,,0.00,241.0,meteohub,2013-07-25 12:00:00,
2013-07-25 08:05:00,59.2,55.4,30.01,WSW,242,3.0,3.0,87,0.00,,,0.00,255.0,meteohub,2013-07-25 12:05:00,
2013-07-25 08:10:00,59.2,55.4,30.01,SSW,194,3.0,5.0,87,0.00,,,0.00,269.0,meteohub,2013-07-25 12:10:00,
2013-07-25 08:15:00,59.2,55.6,30.02,SW,217,2.0,5.0,88,0.00,,,0.00,281.0,meteohub,2013-07-25 12:15:00,
2013-07-25 08:20:00,59.4,56.1,30.02,SW,221,3.0,5.0,89,0.00,,,0.00,299.0,meteohub,2013-07-25 12:20:00,
2013-07-25 08:25:00,59.5,55.6,30.02,SW,234,2.0,5.0,87,0.00,,,0.00,316.0,meteohub,2013-07-25 12:25:00,
2013-07-25 08:30:00,59.5,55.4,30.01,SSW,202,3.0,5.0,86,0.00,,,0.00,343.0,meteohub,2013-07-25 12:30:00,
2013-07-25 08:35:00,59.7,55.8,30.02,South,171,2.0,6.0,87,0.00,,,0.00,357.0,meteohub,2013-07-25 12:35:00,
2013-07-25 08:41:00,60.6,56.5,30.02,SW,223,1.0,6.0,86,0.00,,,0.00,374.0,meteohub,2013-07-25 12:41:00,
2013-07-25 08:46:00,61.0,56.1,30.02,SW,219,2.0,5.0,84,0.00,,,0.00,415.0,meteohub,2013-07-25 12:46:00,
2013-07-25 08:51:00,61.2,56.3,30.02,SSW,194,3.0,5.0,84,0.00,,,0.00,497.0,meteohub,2013-07-25 12:51:00,
2013-07-25 08:56:00,61.7,56.5,30.03,SSW,195,2.0,5.0,83,0.00,,,0.00,603.0,meteohub,2013-07-25 12:56:00,
2013-07-25 09:01:00,62.4,57.6,30.03,SW,222,5.0,5.0,84,0.00,,,0.00,427.0,meteohub,2013-07-25 13:01:00,
2013-07-25 09:06:00,62.2,57.0,30.03,SSW,202,1.0,7.0,83,0.00,,,0.00,265.0,meteohub,2013-07-25 13:06:00,
2013-07-25 09:11:00,62.4,57.2,30.02,WSW,240,1.0,7.0,83,0.00,,,0.00,243.0,meteohub,2013-07-25 13:11:00,
2013-07-25 09:16:00,61.9,56.7,30.03,South,190,1.0,7.0,83,0.00,,,0.00,244.0,meteohub,2013-07-25 13:16:00,
2013-07-25 09:21:00,62.1,56.8,30.03,SW,222,2.0,5.0,83,0.00,,,0.00,272.0,meteohub,2013-07-25 13:21:00,
2013-07-25 09:27:00,62.2,56.7,30.03,WSW,254,3.0,5.0,82,0.00,,,0.00,295.0,meteohub,2013-07-25 13:27:00,
2013-07-25 09:32:00,62.2,56.7,30.03,SSW,210,4.0,5.0,82,0.00,,,0.00,302.0,meteohub,2013-07-25 13:32:00,
2013-07-25 09:37:00,62.8,57.2,30.03,West,261,1.0,6.0,82,0.00,,,0.00,294.0,meteohub,2013-07-25 13:37:00,
2013-07-25 09:42:00,63.7,58.1,30.03,SW,236,9.0,9.0,82,0.00,,,0.00,367.0,meteohub,2013-07-25 13:42:00,
2013-07-25 09:47:00,63.7,57.0,30.03,SSE,167,3.0,10.0,79,0.00,,,0.00,334.0,meteohub,2013-07-25 13:47:00,
2013-07-25 09:52:00,64.6,58.3,30.03,West,262,0.0,10.0,80,0.00,,,0.00,366.0,meteohub,2013-07-25 13:52:00,
2013-07-25 09:57:00,64.9,56.5,30.03,SW,235,5.0,10.0,74,0.00,,,0.00,490.0,meteohub,2013-07-25 13:57:00,
2013-07-25 10:02:00,64.8,56.7,30.03,SW,218,6.0,9.0,75,0.00,,,0.00,663.0,meteohub,2013-07-25 14:02:00,
2013-07-25 10:07:00,65.3,57.2,30.03,SSW,213,4.0,9.0,75,0.00,,,0.00,663.0,meteohub,2013-07-25 14:07:00,
2013-07-25 10:12:00,66.0,57.2,30.03,SW,234,3.0,9.0,73,0.00,,,0.00,673.0,meteohub,2013-07-25 14:12:00,
2013-07-25 10:17:00,66.4,57.0,30.03,SSW,194,6.0,8.0,72,0.00,,,0.00,577.0,meteohub,2013-07-25 14:17:00,
2013-07-25 10:22:00,66.9,56.8,30.03,SSW,205,7.0,8.0,70,0.00,,,0.00,668.0,meteohub,2013-07-25 14:22:00,
2013-07-25 10:27:00,66.9,57.2,30.02,SW,223,6.0,8.0,71,0.00,,,0.00,671.0,meteohub,2013-07-25 14:27:00,
2013-07-25 10:32:00,67.6,58.3,30.02,SSW,209,3.0,8.0,72,0.00,,,0.00,680.0,meteohub,2013-07-25 14:32:00,
2013-07-25 10:37:00,68.5,56.7,30.02,SSW,209,6.0,8.0,66,0.00,,,0.00,689.0,meteohub,2013-07-25 14:37:00,
2013-07-25 10:42:00,68.7,57.7,30.02,SW,229,2.0,8.0,68,0.00,,,0.00,701.0,meteohub,2013-07-25 14:42:00,
2013-07-25 10:47:00,68.4,56.5,30.02,SE,132,3.0,7.0,66,0.00,,,0.00,712.0,meteohub,2013-07-25 14:47:00,
2013-07-25 10:52:00,68.4,57.0,30.02,WSW,254,7.0,7.0,67,0.00,,,0.00,719.0,meteohub,2013-07-25 14:52:00,
2013-07-25 10:57:00,67.8,57.2,30.02,SW,225,8.0,8.0,69,0.00,,,0.00,731.0,meteohub,2013-07-25 14:57:00,
2013-07-25 11:02:00,67.8,55.2,30.02,SW,225,3.0,10.0,64,0.00,,,0.00,740.0,meteohub,2013-07-25 15:02:00,
2013-07-25 11:07:00,69.3,57.0,30.02,SW,231,2.0,12.0,65,0.00,,,0.00,752.0,meteohub,2013-07-25 15:07:00,
2013-07-25 11:12:00,69.6,55.6,30.02,South,182,7.0,12.0,61,0.00,,,0.00,766.0,meteohub,2013-07-25 15:12:00,
2013-07-25 11:17:00,70.0,55.4,30.02,SW,220,7.0,13.0,60,0.00,,,0.00,777.0,meteohub,2013-07-25 15:17:00,
2013-07-25 11:22:00,69.8,54.0,30.03,SW,219,7.0,13.0,57,0.00,,,0.00,788.0,meteohub,2013-07-25 15:22:00,
2013-07-25 11:28:00,69.4,55.4,30.02,SW,227,2.0,11.0,61,0.00,,,0.00,796.0,meteohub,2013-07-25 15:28:00,
2013-07-25 11:33:00,69.8,54.3,30.02,WSW,253,5.0,11.0,58,0.00,,,0.00,807.0,meteohub,2013-07-25 15:33:00,
2013-07-25 11:38:00,70.3,54.9,30.02,SW,232,2.0,11.0,58,0.00,,,0.00,814.0,meteohub,2013-07-25 15:38:00,
2013-07-25 11:43:00,71.1,55.6,30.02,SW,221,3.0,10.0,58,0.00,,,0.00,823.0,meteohub,2013-07-25 15:43:00,
2013-07-25 11:48:00,71.4,55.9,30.02,SSE,155,2.0,9.0,58,0.00,,,0.00,830.0,meteohub,2013-07-25 15:48:00,
2013-07-25 11:53:00,71.4,55.9,30.02,SW,225,4.0,9.0,58,0.00,,,0.00,833.0,meteohub,2013-07-25 15:53:00,
2013-07-25 11:58:00,70.9,54.3,30.03,WSW,246,2.0,9.0,56,0.00,,,0.00,851.0,meteohub,2013-07-25 15:58:00,
2013-07-25 12:03:00,71.2,55.2,30.03,WSW,248,3.0,9.0,57,0.00,,,0.00,810.0,meteohub,2013-07-25 16:03:00,
2013-07-25 12:08:00,72.5,55.4,30.03,SSW,202,5.0,9.0,55,0.00,,,0.00,900.0,meteohub,2013-07-25 16:08:00,
2013-07-25 12:13:00,71.6,55.0,30.03,SSW,200,4.0,9.0,56,0.00,,,0.00,907.0,meteohub,2013-07-25 16:13:00,
2013-07-25 12:18:00,72.1,54.5,30.02,WSW,239,12.0,12.0,54,0.00,,,0.00,916.0,meteohub,2013-07-25 16:18:00,
2013-07-25 12:23:00,72.5,55.9,30.03,SW,232,1.0,8.0,56,0.00,,,0.00,1030.0,meteohub,2013-07-25 16:23:00,
2013-07-25 12:28:00,73.0,53.8,30.03,SW,220,2.0,12.0,51,0.00,,,0.00,914.0,meteohub,2013-07-25 16:28:00,
2013-07-25 12:33:00,72.9,53.1,30.03,SW,235,3.0,12.0,50,0.00,,,0.00,911.0,meteohub,2013-07-25 16:33:00,
2013-07-25 12:38:00,72.3,54.1,30.03,SW,223,1.0,8.0,53,0.00,,,0.00,912.0,meteohub,2013-07-25 16:38:00,
2013-07-25 12:43:00,72.9,54.1,30.03,SW,226,3.0,8.0,52,0.00,,,0.00,916.0,meteohub,2013-07-25 16:43:00,
2013-07-25 12:48:00,73.0,53.8,30.02,WSW,242,3.0,8.0,51,0.00,,,0.00,914.0,meteohub,2013-07-25 16:48:00,
2013-07-25 12:53:00,73.2,55.6,30.02,WSW,241,3.0,8.0,54,0.00,,,0.00,914.0,meteohub,2013-07-25 16:53:00,
2013-07-25 12:58:00,73.8,52.9,30.03,West,275,1.0,9.0,48,0.00,,,0.00,919.0,meteohub,2013-07-25 16:58:00,
2013-07-25 13:03:00,73.2,52.9,30.02,SSW,209,3.0,9.0,49,0.00,,,0.00,923.0,meteohub,2013-07-25 17:03:00,
2013-07-25 13:08:00,72.9,51.4,30.03,South,175,3.0,8.0,47,0.00,,,0.00,921.0,meteohub,2013-07-25 17:08:00,
2013-07-25 13:13:00,72.9,53.6,30.02,West,278,2.0,7.0,51,0.00,,,0.00,923.0,meteohub,2013-07-25 17:13:00,
2013-07-25 13:18:00,73.0,52.2,30.02,SW,225,4.0,9.0,48,0.00,,,0.00,926.0,meteohub,2013-07-25 17:18:00,
2013-07-25 13:23:00,73.9,53.6,30.02,WSW,250,4.0,9.0,49,0.00,,,0.00,926.0,meteohub,2013-07-25 17:23:00,
2013-07-25 13:28:00,73.2,55.0,30.02,SSW,205,3.0,10.0,53,0.00,,,0.00,928.0,meteohub,2013-07-25 17:28:00,
2013-07-25 13:34:00,73.8,55.6,30.02,South,178,2.0,10.0,53,0.00,,,0.00,930.0,meteohub,2013-07-25 17:34:00,
2013-07-25 13:39:00,74.7,53.1,30.02,WSW,241,2.0,9.0,47,0.00,,,0.00,932.0,meteohub,2013-07-25 17:39:00,
2013-07-25 13:44:00,74.5,52.9,30.02,WSW,243,4.0,8.0,47,0.00,,,0.00,932.0,meteohub,2013-07-25 17:44:00,
2013-07-25 13:49:00,74.7,54.3,30.01,WSW,248,1.0,9.0,49,0.00,,,0.00,933.0,meteohub,2013-07-25 17:49:00,
2013-07-25 13:54:00,74.5,53.4,30.01,SSW,209,3.0,9.0,48,0.00,,,0.00,940.0,meteohub,2013-07-25 17:54:00,
2013-07-25 13:59:00,74.1,53.2,30.01,SW,232,2.0,9.0,48,0.00,,,0.00,937.0,meteohub,2013-07-25 17:59:00,
2013-07-25 14:04:00,74.8,53.2,30.01,WNW,282,1.0,9.0,47,0.00,,,0.00,928.0,meteohub,2013-07-25 18:04:00,
2013-07-25 14:09:00,76.3,54.0,30.01,WSW,255,1.0,9.0,46,0.00,,,0.00,928.0,meteohub,2013-07-25 18:09:00,
2013-07-25 14:14:00,76.3,52.7,30.01,WSW,247,1.0,9.0,44,0.00,,,0.00,930.0,meteohub,2013-07-25 18:14:00,
2013-07-25 14:19:00,75.9,53.6,30.00,South,187,1.0,5.0,46,0.00,,,0.00,930.0,meteohub,2013-07-25 18:19:00,
2013-07-25 14:24:00,75.6,53.2,30.00,SW,221,4.0,4.0,46,0.00,,,0.00,930.0,meteohub,2013-07-25 18:24:00,
2013-07-25 14:29:00,76.1,53.8,30.01,WNW,300,2.0,6.0,46,0.00,,,0.00,925.0,meteohub,2013-07-25 18:29:00,
2013-07-25 14:34:00,76.8,53.2,30.00,SSW,203,4.0,8.0,44,0.00,,,0.00,921.0,meteohub,2013-07-25 18:34:00,
2013-07-25 14:39:00,75.4,52.5,30.00,SW,236,1.0,8.0,45,0.00,,,0.00,916.0,meteohub,2013-07-25 18:39:00,
2013-07-25 14:45:00,77.2,54.1,30.00,SW,230,4.0,7.0,45,0.00,,,0.00,911.0,meteohub,2013-07-25 18:45:00,
2013-07-25 14:50:00,75.9,54.3,29.99,SSW,194,4.0,7.0,47,0.00,,,0.00,904.0,meteohub,2013-07-25 18:50:00,
2013-07-25 14:55:00,75.9,53.6,30.00,SSW,195,3.0,6.0,46,0.00,,,0.00,900.0,meteohub,2013-07-25 18:55:00,
2013-07-25 15:00:00,75.4,53.8,29.99,SW,223,4.0,8.0,47,0.00,,,0.00,893.0,meteohub,2013-07-25 19:00:00,
2013-07-25 15:05:00,75.9,53.1,29.99,WSW,252,1.0,8.0,45,0.00,,,0.00,868.0,meteohub,2013-07-25 19:05:00,
2013-07-25 15:10:00,76.1,52.5,29.99,SW,223,7.0,8.0,44,0.00,,,0.00,879.0,meteohub,2013-07-25 19:10:00,
2013-07-25 15:15:00,76.5,55.4,29.99,SSE,163,2.0,8.0,48,0.00,,,0.00,868.0,meteohub,2013-07-25 19:15:00,
2013-07-25 15:20:00,76.6,52.5,29.99,SSW,195,4.0,10.0,43,0.00,,,0.00,875.0,meteohub,2013-07-25 19:20:00,
2013-07-25 15:25:00,76.3,52.2,29.99,SSW,196,4.0,10.0,43,0.00,,,0.00,824.0,meteohub,2013-07-25 19:25:00,
2013-07-25 15:30:00,75.7,52.3,29.98,SW,223,4.0,8.0,44,0.00,,,0.00,506.0,meteohub,2013-07-25 19:30:00,
2013-07-25 15:35:00,76.5,55.4,29.98,WSW,243,1.0,8.0,48,0.00,,,0.00,939.0,meteohub,2013-07-25 19:35:00,
2013-07-25 15:40:00,77.0,53.4,29.98,SW,217,8.0,8.0,44,0.00,,,0.00,540.0,meteohub,2013-07-25 19:40:00,
2013-07-25 15:45:00,76.5,55.4,29.98,WSW,248,1.0,9.0,48,0.00,,,0.00,911.0,meteohub,2013-07-25 19:45:00,
2013-07-25 15:50:00,78.1,54.3,29.98,NNW,329,1.0,9.0,44,0.00,,,0.00,856.0,meteohub,2013-07-25 19:50:00,
2013-07-25 15:55:00,77.5,55.8,29.98,SSW,205,2.0,9.0,47,0.00,,,0.00,858.0,meteohub,2013-07-25 19:55:00,
2013-07-25 16:00:00,77.7,54.1,29.98,WNW,282,1.0,7.0,44,0.00,,,0.00,807.0,meteohub,2013-07-25 20:00:00,
2013-07-25 16:05:00,77.2,54.1,29.98,SSE,167,2.0,7.0,45,0.00,,,0.00,849.0,meteohub,2013-07-25 20:05:00,
2013-07-25 16:10:00,76.8,55.0,29.98,SW,231,0.0,5.0,47,0.00,,,0.00,756.0,meteohub,2013-07-25 20:10:00,
2013-07-25 16:15:00,77.5,53.2,29.98,SW,218,3.0,5.0,43,0.00,,,0.00,796.0,meteohub,2013-07-25 20:15:00,
2013-07-25 16:20:00,77.5,54.5,29.98,SSW,213,4.0,6.0,45,0.00,,,0.00,738.0,meteohub,2013-07-25 20:20:00,
2013-07-25 16:25:00,77.7,57.0,29.98,SSW,194,4.0,7.0,49,0.00,,,0.00,791.0,meteohub,2013-07-25 20:25:00,
2013-07-25 16:30:00,77.5,55.0,29.98,SW,220,5.0,7.0,46,0.00,,,0.00,893.0,meteohub,2013-07-25 20:30:00,
2013-07-25 16:36:00,77.2,56.5,29.98,SW,220,1.0,7.0,49,0.00,,,0.00,193.0,meteohub,2013-07-25 20:36:00,
2013-07-25 16:41:00,75.7,54.1,29.98,SW,229,2.0,7.0,47,0.00,,,0.00,250.0,meteohub,2013-07-25 20:41:00,
2013-07-25 16:46:00,75.2,54.1,29.98,WSW,257,0.0,7.0,48,0.00,,,0.00,250.0,meteohub,2013-07-25 20:46:00,
2013-07-25 16:51:00,75.7,55.8,29.98,WSW,240,0.0,7.0,50,0.00,,,0.00,373.0,meteohub,2013-07-25 20:51:00,
2013-07-25 16:56:00,76.5,57.0,29.98,NNW,342,1.0,6.0,51,0.00,,,0.00,171.0,meteohub,2013-07-25 20:56:00,
2013-07-25 17:01:00,75.6,58.8,29.98,NNE,14,0.0,4.0,56,0.00,,,0.00,190.0,meteohub,2013-07-25 21:01:00,
2013-07-25 17:06:00,74.8,59.0,29.98,North,0,1.0,5.0,58,0.00,,,0.00,281.0,meteohub,2013-07-25 21:06:00,
2013-07-25 17:11:00,74.1,58.8,29.98,NNW,331,1.0,5.0,59,0.00,,,0.00,237.0,meteohub,2013-07-25 21:11:00,
2013-07-25 17:16:00,74.3,59.0,29.97,NNE,21,2.0,3.0,59,0.00,,,0.00,139.0,meteohub,2013-07-25 21:16:00,
2013-07-25 17:22:00,74.5,58.8,29.97,NNE,30,2.0,3.0,58,0.00,,,0.00,134.0,meteohub,2013-07-25 21:22:00,
2013-07-25 17:27:00,74.5,60.1,29.97,NW,308,0.0,5.0,61,0.00,,,0.00,141.0,meteohub,2013-07-25 21:27:00,
2013-07-25 17:32:00,74.3,61.3,29.97,ESE,114,0.0,5.0,64,0.00,,,0.00,163.0,meteohub,2013-07-25 21:32:00,
2013-07-25 17:37:00,74.1,58.8,29.97,NNE,15,3.0,5.0,59,0.00,,,0.00,113.0,meteohub,2013-07-25 21:37:00,
2013-07-25 17:42:00,74.3,58.1,29.97,East,84,0.0,5.0,57,0.00,,,0.00,86.0,meteohub,2013-07-25 21:42:00,
2013-07-25 17:47:00,74.5,60.1,29.97,NNE,28,1.0,8.0,61,0.00,,,0.00,139.0,meteohub,2013-07-25 21:47:00,
2013-07-25 17:52:00,74.5,58.8,29.97,ENE,66,2.0,8.0,58,0.00,,,0.00,114.0,meteohub,2013-07-25 21:52:00,
2013-07-25 17:57:00,74.1,58.5,29.97,NNE,16,1.0,6.0,58,0.00,,,0.00,102.0,meteohub,2013-07-25 21:57:00,
2013-07-25 18:02:00,74.1,58.8,29.96,ENE,67,4.0,7.0,59,0.00,,,0.00,105.0,meteohub,2013-07-25 22:02:00,
2013-07-25 18:07:00,73.8,58.1,29.96,ENE,78,3.0,7.0,58,0.00,,,0.00,102.0,meteohub,2013-07-25 22:07:00,
2013-07-25 18:12:00,73.2,57.6,29.96,NE,52,6.0,7.0,58,0.00,,,0.00,116.0,meteohub,2013-07-25 22:12:00,
2013-07-25 18:17:00,73.0,57.9,29.96,ENE,59,3.0,7.0,59,0.00,,,0.00,90.0,meteohub,2013-07-25 22:17:00,
2013-07-25 18:22:00,72.7,58.8,29.96,East,87,3.0,7.0,62,0.00,,,0.00,79.0,meteohub,2013-07-25 22:22:00,
2013-07-25 18:27:00,72.3,58.1,29.96,NE,55,1.0,7.0,61,0.00,,,0.00,111.0,meteohub,2013-07-25 22:27:00,
2013-07-25 18:32:00,72.1,57.9,29.96,NE,38,3.0,7.0,61,0.00,,,0.00,100.0,meteohub,2013-07-25 22:32:00,
2013-07-25 18:37:00,72.1,58.5,29.96,East,82,1.0,6.0,62,0.00,,,0.00,65.0,meteohub,2013-07-25 22:37:00,
2013-07-25 18:42:00,72.0,57.7,29.96,NE,40,2.0,6.0,61,0.00,,,0.00,69.0,meteohub,2013-07-25 22:42:00,
2013-07-25 18:47:00,72.0,58.3,29.96,ENE,72,4.0,6.0,62,0.00,,,0.00,104.0,meteohub,2013-07-25 22:47:00,
2013-07-25 18:52:00,71.8,58.1,29.96,NE,44,1.0,6.0,62,0.00,,,0.00,134.0,meteohub,2013-07-25 22:52:00,
2013-07-25 18:57:00,72.0,58.6,29.95,ENE,68,1.0,6.0,63,0.00,,,0.00,95.0,meteohub,2013-07-25 22:57:00,
2013-07-25 19:02:00,72.0,58.3,29.95,ENE,60,3.0,5.0,62,0.00,,,0.00,77.0,meteohub,2013-07-25 23:02:00,
2013-07-25 19:07:00,72.0,58.6,29.95,ENE,63,3.0,4.0,63,0.00,,,0.00,93.0,meteohub,2013-07-25 23:07:00,
2013-07-25 19:13:00,72.0,59.2,29.95,ENE,77,1.0,4.0,64,0.00,,,0.00,77.0,meteohub,2013-07-25 23:13:00,
2013-07-25 19:18:00,72.0,58.6,29.94,NNE,27,1.0,4.0,63,0.00,,,0.00,58.0,meteohub,2013-07-25 23:18:00,
2013-07-25 19:23:00,72.1,58.8,29.95,NE,55,1.0,4.0,63,0.00,,,0.00,51.0,meteohub,2013-07-25 23:23:00,
2013-07-25 19:28:00,72.1,58.8,29.95,ENE,72,0.0,4.0,63,0.00,,,0.00,53.0,meteohub,2013-07-25 23:28:00,
2013-07-25 19:33:00,72.1,58.5,29.95,NE,51,1.0,4.0,62,0.00,,,0.00,42.0,meteohub,2013-07-25 23:33:00,
2013-07-25 19:38:00,72.1,57.6,29.95,NE,53,1.0,4.0,60,0.00,,,0.00,37.0,meteohub,2013-07-25 23:38:00,
2013-07-25 19:43:00,72.1,57.9,29.95,ENE,64,1.0,4.0,61,0.00,,,0.00,33.0,meteohub,2013-07-25 23:43:00,
2013-07-25 19:48:00,72.0,57.7,29.95,ENE,76,1.0,3.0,61,0.00,,,0.00,26.0,meteohub,2013-07-25 23:48:00,
2013-07-25 19:53:00,72.0,58.3,29.95,ENE,72,2.0,3.0,62,0.00,,,0.00,23.0,meteohub,2013-07-25 23:53:00,
2013-07-25 19:58:00,71.6,58.8,29.94,ENE,61,0.0,3.0,64,0.00,,,0.00,19.0,meteohub,2013-07-25 23:58:00,
2013-07-25 20:03:00,71.4,59.5,29.94,ENE,61,0.0,3.0,66,0.00,,,0.00,16.0,meteohub,2013-07-26 00:03:00,
2013-07-25 20:08:00,71.1,59.2,29.94,ENE,61,0.0,3.0,66,0.00,,,0.00,16.0,meteohub,2013-07-26 00:08:00,
2013-07-25 20:13:00,70.5,59.0,29.94,ENE,61,1.0,1.0,67,0.00,,,0.00,14.0,meteohub,2013-07-26 00:13:00,
2013-07-25 20:18:00,70.0,60.1,29.94,ENE,61,1.0,1.0,71,0.00,,,0.00,14.0,meteohub,2013-07-26 00:18:00,
2013-07-25 20:23:00,69.4,60.1,29.94,ENE,61,0.0,1.0,72,0.00,,,0.00,19.0,meteohub,2013-07-26 00:23:00,
2013-07-25 20:28:00,68.7,59.7,29.94,ENE,61,0.0,1.0,73,0.00,,,0.00,21.0,meteohub,2013-07-26 00:28:00,
2013-07-25 20:34:00,68.4,59.4,29.94,ENE,61,0.0,1.0,73,0.00,,,0.00,16.0,meteohub,2013-07-26 00:34:00,
2013-07-25 20:39:00,68.0,59.7,29.94,ENE,61,0.0,0.0,75,0.00,,,0.00,12.0,meteohub,2013-07-26 00:39:00,
2013-07-25 20:44:00,67.6,59.4,29.94,ENE,61,0.0,0.0,75,0.00,,,0.00,11.0,meteohub,2013-07-26 00:44:00,
2013-07-25 20:49:00,67.3,59.0,29.95,ENE,61,0.0,0.0,75,0.00,,,0.00,11.0,meteohub,2013-07-26 00:49:00,
2013-07-25 20:54:00,66.9,59.2,29.95,ENE,61,0.0,0.0,76,0.00,,,0.00,7.0,meteohub,2013-07-26 00:54:00,
2013-07-25 20:59:00,66.6,59.5,29.95,ENE,61,0.0,0.0,78,0.00,,,0.00,5.0,meteohub,2013-07-26 00:59:00,
2013-07-25 21:04:00,66.4,59.4,29.95,ENE,61,0.0,0.0,78,0.00,,,0.00,0.0,meteohub,2013-07-26 01:04:00,
2013-07-25 21:09:00,65.8,59.5,29.94,ENE,61,1.0,0.0,80,0.00,,,0.00,0.0,meteohub,2013-07-26 01:09:00,
2013-07-25 21:14:00,65.7,59.7,29.94,ENE,61,0.0,1.0,81,0.00,,,0.00,0.0,meteohub,2013-07-26 01:14:00,
2013-07-25 21:19:00,65.3,59.4,29.94,ENE,61,0.0,1.0,81,0.00,,,0.00,0.0,meteohub,2013-07-26 01:19:00,
2013-07-25 21:24:00,64.9,59.7,29.94,ENE,61,0.0,1.0,83,0.00,,,0.00,0.0,meteohub,2013-07-26 01:24:00,
2013-07-25 21:29:00,64.9,59.4,29.94,ENE,61,0.0,1.0,82,0.00,,,0.00,0.0,meteohub,2013-07-26 01:29:00,
2013-07-25 21:34:00,64.9,59.4,29.94,ENE,61,0.0,1.0,82,0.00,,,0.00,0.0,meteohub,2013-07-26 01:34:00,
2013-07-25 21:39:00,65.1,59.2,29.94,ENE,61,0.0,1.0,81,0.00,,,0.00,0.0,meteohub,2013-07-26 01:39:00,
2013-07-25 21:44:00,65.5,59.5,29.94,ENE,61,0.0,1.0,81,0.00,,,0.00,0.0,meteohub,2013-07-26 01:44:00,
2013-07-25 21:49:00,65.7,59.7,29.94,ENE,61,2.0,2.0,81,0.00,,,0.00,0.0,meteohub,2013-07-26 01:49:00,
2013-07-25 21:54:00,65.7,59.7,29.94,ENE,61,0.0,2.0,81,0.00,,,0.00,0.0,meteohub,2013-07-26 01:54:00,
2013-07-25 21:59:00,65.5,59.5,29.93,ENE,61,0.0,2.0,81,0.00,,,0.00,0.0,meteohub,2013-07-26 01:59:00,
2013-07-25 22:04:00,65.5,59.9,29.93,ENE,61,0.0,2.0,82,0.00,,,0.00,0.0,meteohub,2013-07-26 02:04:00,
2013-07-25 22:09:00,65.3,59.7,29.93,ENE,78,0.0,1.0,82,0.00,,,0.00,0.0,meteohub,2013-07-26 02:09:00,
2013-07-25 22:14:00,65.1,59.5,29.93,ENE,78,0.0,1.0,82,0.00,,,0.00,0.0,meteohub,2013-07-26 02:14:00,
2013-07-25 22:20:00,65.1,59.5,29.94,ENE,78,0.0,1.0,82,0.00,,,0.00,0.0,meteohub,2013-07-26 02:20:00,
2013-07-25 22:25:00,65.1,59.9,29.94,ENE,78,0.0,1.0,83,0.00,,,0.00,0.0,meteohub,2013-07-26 02:25:00,
2013-07-25 22:30:00,64.9,59.7,29.93,ENE,78,0.0,1.0,83,0.00,,,0.00,0.0,meteohub,2013-07-26 02:30:00,
2013-07-25 22:35:00,64.9,59.7,29.94,SSW,198,0.0,1.0,83,0.00,,,0.00,0.0,meteohub,2013-07-26 02:35:00,
2013-07-25 22:40:00,64.9,59.7,29.94,SSW,198,0.0,3.0,83,0.00,,,0.00,0.0,meteohub,2013-07-26 02:40:00,
2013-07-25 22:45:00,64.8,59.5,29.94,SSW,198,0.0,3.0,83,0.00,,,0.00,0.0,meteohub,2013-07-26 02:45:00,
2013-07-25 22:50:00,64.6,59.7,29.94,SSW,198,0.0,3.0,84,0.00,,,0.00,0.0,meteohub,2013-07-26 02:50:00,
2013-07-25 22:55:00,64.2,59.4,29.94,SSW,198,0.0,1.0,84,0.00,,,0.00,0.0,meteohub,2013-07-26 02:55:00,
2013-07-25 23:00:00,64.2,59.4,29.94,SSW,198,0.0,1.0,84,0.00,,,0.00,0.0,meteohub,2013-07-26 03:00:00,
2013-07-25 23:05:00,64.2,59.4,29.94,South,185,1.0,2.0,84,0.00,,,0.00,0.0,meteohub,2013-07-26 03:05:00,
2013-07-25 23:10:00,64.2,59.4,29.94,SW,217,0.0,2.0,84,0.00,,,0.00,0.0,meteohub,2013-07-26 03:10:00,
2013-07-25 23:15:00,64.2,59.0,29.94,SSW,196,2.0,3.0,83,0.00,,,0.00,0.0,meteohub,2013-07-26 03:15:00,
2013-07-25 23:20:00,64.2,58.6,29.94,SSE,167,1.0,4.0,82,0.00,,,0.00,0.0,meteohub,2013-07-26 03:20:00,
2013-07-25 23:25:00,64.6,58.3,29.94,SE,132,0.0,4.0,80,0.00,,,0.00,0.0,meteohub,2013-07-26 03:25:00,
2013-07-25 23:30:00,64.6,58.6,29.94,SSE,162,1.0,4.0,81,0.00,,,0.00,0.0,meteohub,2013-07-26 03:30:00,
2013-07-25 23:35:00,64.6,59.0,29.94,SSW,199,1.0,3.0,82,0.00,,,0.00,0.0,meteohub,2013-07-26 03:35:00,
2013-07-25 23:40:00,64.2,58.6,29.94,SSW,198,1.0,3.0,82,0.00,,,0.00,0.0,meteohub,2013-07-26 03:40:00,
2013-07-25 23:45:00,64.2,57.9,29.94,SSW,198,1.0,3.0,80,0.00,,,0.00,0.0,meteohub,2013-07-26 03:45:00,
2013-07-25 23:51:00,64.4,57.7,29.94,SSW,198,0.0,2.0,79,0.00,,,0.00,0.0,meteohub,2013-07-26 03:51:00,
2013-07-25 23:55:00,64.4,57.4,29.95,SSE,164,1.0,2.0,78,0.00,,,0.00,0.0,meteohub,2013-07-26 03:55:00,